This is the latest recevied weather packets stored in our database for station/object EFHKFMI. If no packets are shown the sender has not sent any weather packets the latest 10 day(s).
| Time | Temp. | Humidity | Pressure | Rain* | Wind** | Luminosity | Snow |
|---|---|---|---|---|---|---|---|
| 1777846028 | 11.11° C | 71% | 1007.3 hPa | 0 mm | - | - | - |
| 1777844828 | 11.11° C | 75% | 1007.3 hPa | 0 mm | - | - | - |
| 1777843627 | 11.11° C | 75% | 1007.3 hPa | 0 mm | - | - | - |
| 1777842428 | 10.56° C | 79% | 1007.3 hPa | 0 mm | - | - | - |
| 1777841228 | 11.11° C | 74% | 1007.4 hPa | 0 mm | - | - | - |
| 1777840027 | 11.11° C | 82% | 1007.5 hPa | 0 mm | - | - | - |
| 1777838827 | 11.11° C | 74% | 1007.6 hPa | 0 mm | - | - | - |
| 1777837627 | 11.11° C | 84% | 1007.6 hPa | 0 mm | - | - | - |
| 1777836427 | 11.67° C | 74% | 1007.6 hPa | 0 mm | - | - | - |
| 1777835227 | 11.67° C | 71% | 1007.6 hPa | 0 mm | - | - | - |
| 1777834027 | 12.78° C | 62% | 1007.5 hPa | 0 mm | - | - | - |
| 1777832827 | 12.78° C | 67% | 1007.5 hPa | 0 mm | - | - | - |
| 1777831627 | 13.33° C | 60% | 1007.4 hPa | 0 mm | - | - | - |
| 1777830427 | 13.89° C | 55% | 1007.3 hPa | 0 mm | - | - | - |
| 1777829233 | 14.44° C | 53% | 1007.4 hPa | 0 mm | - | - | - |
| 1777828027 | 14.44° C | 53% | 1007.3 hPa | 0 mm | - | - | - |
| 1777826827 | 14.44° C | 51% | 1007.2 hPa | 0 mm | - | - | - |
| 1777825626 | 15° C | 51% | 1007.5 hPa | 0 mm | - | - | - |
| 1777824427 | 15° C | 49% | 1007.4 hPa | 0 mm | - | - | - |
| 1777823226 | 15.56° C | 48% | 1007.4 hPa | 0 mm | - | - | - |
| 1777822026 | 15.56° C | 47% | 1007.3 hPa | 0 mm | - | - | - |
| 1777820826 | 15.56° C | 48% | 1007.4 hPa | 0 mm | - | - | - |
| 1777819626 | 15.56° C | 47% | 1007.4 hPa | 0 mm | - | - | - |
| 1777818426 | 16.11° C | 47% | 1007.4 hPa | 0 mm | - | - | - |
| 1777817226 | 16.11° C | 46% | 1007.4 hPa | 0 mm | - | - | - |
* Rain latest hour (hover to see other rain measurements)
** Current wind speed in m/s (hover to see current wind gust speed)